Time,TemperatureF,DewpointF,PressureIn,WindDirection,WindDirectionDegrees,WindSpeedMPH,WindSpeedGustMPH,Humidity,HourlyPrecipIn,Conditions,Clouds,dailyrainin,SoftwareType,DateUTC
2013-10-31 00:01:00,55.9,55.3,29.60,SSW,198,0.0,0.0,98,0.00,,,0.00,VWS V14.01,2013-10-31 05:01:00,
2013-10-31 00:06:00,55.9,55.3,29.60,SSW,198,0.0,0.0,98,0.00,,,0.00,VWS V14.01,2013-10-31 05:06:00,
2013-10-31 00:11:00,55.9,55.3,29.59,SSW,198,0.0,0.0,98,0.00,,,0.00,VWS V14.01,2013-10-31 05:11:00,
2013-10-31 00:16:00,55.9,55.3,29.59,WSW,248,0.0,1.0,98,0.00,,,0.00,VWS V14.01,2013-10-31 05:16:00,
2013-10-31 00:21:00,55.9,55.3,29.59,WSW,248,0.0,1.0,98,0.00,,,0.00,VWS V14.01,2013-10-31 05:21:00,
2013-10-31 00:26:00,55.9,55.3,29.59,SSW,212,0.0,1.0,98,0.00,,,0.00,VWS V14.01,2013-10-31 05:26:00,
2013-10-31 00:31:00,55.9,55.3,29.59,SW,215,1.0,1.0,98,0.00,,,0.00,VWS V14.01,2013-10-31 05:31:00,
2013-10-31 00:36:00,55.8,55.2,29.59,West,262,1.0,1.0,98,0.00,,,0.00,VWS V14.01,2013-10-31 05:36:00,
2013-10-31 00:41:00,55.8,55.2,29.59,WSW,248,2.0,2.0,98,0.00,,,0.00,VWS V14.01,2013-10-31 05:41:00,
2013-10-31 00:46:00,55.8,55.2,29.59,West,281,1.0,2.0,98,0.00,,,0.00,VWS V14.01,2013-10-31 05:46:00,
2013-10-31 00:51:00,55.8,55.2,29.59,West,278,0.0,2.0,98,0.00,,,0.00,VWS V14.01,2013-10-31 05:51:00,
2013-10-31 00:56:00,55.8,55.2,29.59,West,277,2.0,4.0,98,0.00,,,0.00,VWS V14.01,2013-10-31 05:56:00,
2013-10-31 01:01:00,55.8,55.2,29.59,West,270,0.0,1.0,98,0.00,,,0.00,VWS V14.01,2013-10-31 06:01:00,
2013-10-31 01:06:00,55.7,55.2,29.59,West,270,1.0,4.0,98,0.00,,,0.00,VWS V14.01,2013-10-31 06:06:00,
2013-10-31 01:11:00,55.6,55.0,29.59,WNW,299,1.0,5.0,98,0.00,,,0.00,VWS V14.01,2013-10-31 06:11:00,
2013-10-31 01:16:00,54.9,54.1,29.60,WNW,294,4.0,7.0,97,0.00,,,0.00,VWS V14.01,2013-10-31 06:16:00,
2013-10-31 01:21:00,54.0,53.2,29.59,WNW,296,1.0,8.0,97,0.00,,,0.00,VWS V14.01,2013-10-31 06:21:00,
2013-10-31 01:26:00,53.4,52.6,29.59,WNW,300,1.0,8.0,97,0.00,,,0.00,VWS V14.01,2013-10-31 06:26:00,
2013-10-31 01:31:00,52.9,52.1,29.59,NW,309,1.0,3.0,97,0.00,,,0.00,VWS V14.01,2013-10-31 06:31:00,
2013-10-31 01:36:00,52.6,51.8,29.59,NW,312,1.0,5.0,97,0.00,,,0.00,VWS V14.01,2013-10-31 06:36:00,
2013-10-31 01:41:00,52.4,51.6,29.59,NW,309,0.0,5.0,97,0.00,,,0.00,VWS V14.01,2013-10-31 06:41:00,
2013-10-31 01:46:00,52.2,51.7,29.59,NW,308,0.0,5.0,98,0.00,,,0.00,VWS V14.01,2013-10-31 06:46:00,
2013-10-31 01:51:00,52.0,51.5,29.59,NW,309,2.0,5.0,98,0.00,,,0.00,VWS V14.01,2013-10-31 06:51:00,
2013-10-31 01:56:00,51.6,50.8,29.60,WNW,295,4.0,5.0,97,0.00,,,0.00,VWS V14.01,2013-10-31 06:56:00,
2013-10-31 02:01:00,51.2,50.4,29.59,NW,309,2.0,4.0,97,0.00,,,0.00,VWS V14.01,2013-10-31 07:01:00,
2013-10-31 02:06:00,50.9,50.4,29.59,WNW,297,5.0,8.0,98,0.00,,,0.00,VWS V14.01,2013-10-31 07:06:00,
2013-10-31 02:11:00,50.3,49.5,29.59,WNW,284,5.0,8.0,97,0.00,,-RA,0.00,VWS V14.01,2013-10-31 07:11:00,
2013-10-31 02:16:00,49.8,49.0,29.59,NW,321,2.0,8.0,97,0.00,,-RA,0.00,VWS V14.01,2013-10-31 07:16:00,
2013-10-31 02:21:00,49.4,48.6,29.59,WNW,294,2.0,8.0,97,0.00,,-RA,0.00,VWS V14.01,2013-10-31 07:21:00,
2013-10-31 02:26:00,49.1,48.3,29.59,NW,325,1.0,8.0,97,0.00,,,0.00,VWS V14.01,2013-10-31 07:26:00,
2013-10-31 02:31:00,48.8,48.0,29.58,WNW,302,2.0,3.0,97,0.00,,,0.00,VWS V14.01,2013-10-31 07:31:00,
2013-10-31 02:36:00,48.7,48.2,29.58,NW,305,2.0,6.0,98,0.00,,,0.00,VWS V14.01,2013-10-31 07:36:00,
2013-10-31 02:41:00,48.5,48.0,29.58,NW,314,2.0,6.0,98,0.00,,,0.00,VWS V14.01,2013-10-31 07:41:00,
2013-10-31 02:46:00,48.3,47.8,29.57,NW,326,0.0,6.0,98,0.00,,,0.00,VWS V14.01,2013-10-31 07:46:00,
2013-10-31 02:51:00,48.2,47.7,29.57,WNW,298,2.0,6.0,98,0.00,,,0.00,VWS V14.01,2013-10-31 07:51:00,
2013-10-31 02:56:00,48.1,47.6,29.57,North,9,4.0,6.0,98,0.00,,,0.00,VWS V14.01,2013-10-31 07:56:00,
2013-10-31 03:01:00,47.9,47.4,29.57,NNW,331,3.0,4.0,98,0.00,,,0.00,VWS V14.01,2013-10-31 08:01:00,
2013-10-31 03:06:00,47.8,47.3,29.57,NW,304,2.0,5.0,98,0.00,,,0.00,VWS V14.01,2013-10-31 08:06:00,
2013-10-31 03:11:00,47.8,47.3,29.57,NW,321,2.0,7.0,98,0.00,,,0.00,VWS V14.01,2013-10-31 08:11:00,
2013-10-31 03:15:00,47.7,47.2,29.57,North,8,3.0,7.0,98,0.00,,,0.00,VWS V14.01,2013-10-31 08:15:00,
2013-10-31 03:20:00,47.6,47.1,29.56,SE,142,3.0,7.0,98,0.00,,,0.00,VWS V14.01,2013-10-31 08:20:00,
2013-10-31 03:25:00,47.3,46.8,29.55,NW,305,2.0,7.0,98,0.00,,,0.00,VWS V14.01,2013-10-31 08:25:00,
2013-10-31 03:30:00,47.0,46.5,29.55,NW,311,4.0,4.0,98,0.00,,,0.00,VWS V14.01,2013-10-31 08:30:00,
2013-10-31 03:35:00,46.8,46.3,29.55,WNW,286,1.0,4.0,98,0.00,,,0.00,VWS V14.01,2013-10-31 08:35:00,
2013-10-31 03:40:00,46.6,46.1,29.56,NNE,23,2.0,6.0,98,0.00,,,0.00,VWS V14.01,2013-10-31 08:40:00,
2013-10-31 03:45:00,46.6,46.1,29.56,NW,313,1.0,6.0,98,0.00,,,0.00,VWS V14.01,2013-10-31 08:45:00,
2013-10-31 03:50:00,46.5,46.0,29.56,NNW,343,2.0,6.0,98,0.00,,,0.00,VWS V14.01,2013-10-31 08:50:00,
2013-10-31 03:55:00,46.3,45.8,29.56,NNW,335,3.0,6.0,98,0.00,,,0.00,VWS V14.01,2013-10-31 08:55:00,
2013-10-31 04:00:00,46.2,45.7,29.56,North,351,3.0,3.0,98,0.00,,,0.00,VWS V14.01,2013-10-31 09:00:00,
2013-10-31 04:05:00,46.1,45.6,29.56,NNE,16,1.0,4.0,98,0.00,,,0.00,VWS V14.01,2013-10-31 09:05:00,
2013-10-31 04:10:00,46.0,45.5,29.56,WNW,293,3.0,4.0,98,0.00,,,0.00,VWS V14.01,2013-10-31 09:10:00,
2013-10-31 04:15:00,45.9,45.4,29.56,North,360,2.0,4.0,98,0.00,,,0.00,VWS V14.01,2013-10-31 09:15:00,
2013-10-31 04:20:00,45.9,45.4,29.56,NNE,13,2.0,4.0,98,0.00,,,0.00,VWS V14.01,2013-10-31 09:20:00,
2013-10-31 04:25:00,45.7,45.2,29.56,NNE,18,1.0,4.0,98,0.00,,,0.00,VWS V14.01,2013-10-31 09:25:00,
2013-10-31 04:30:00,45.6,45.1,29.56,NNW,337,1.0,5.0,98,0.00,,,0.00,VWS V14.01,2013-10-31 09:30:00,
2013-10-31 04:35:00,45.5,45.0,29.56,NW,314,1.0,3.0,98,0.00,,,0.00,VWS V14.01,2013-10-31 09:35:00,
2013-10-31 04:40:00,45.5,45.0,29.56,NNW,328,0.0,3.0,98,0.00,,,0.00,VWS V14.01,2013-10-31 09:40:00,
2013-10-31 04:45:00,45.5,45.0,29.56,NW,314,0.0,3.0,98,0.00,,,0.00,VWS V14.01,2013-10-31 09:45:00,
2013-10-31 04:50:00,45.4,44.9,29.55,NNW,339,1.0,4.0,98,0.00,,,0.00,VWS V14.01,2013-10-31 09:50:00,
2013-10-31 04:55:00,45.4,44.9,29.55,NNW,336,2.0,4.0,98,0.00,,,0.00,VWS V14.01,2013-10-31 09:55:00,
2013-10-31 05:00:00,45.3,44.8,29.56,WNW,300,0.0,4.0,98,0.00,,OVC029,0.00,VWS V14.01,2013-10-31 10:00:00,
2013-10-31 05:05:00,45.3,44.8,29.55,WNW,290,1.0,3.0,98,0.00,,OVC029,0.00,VWS V14.01,2013-10-31 10:05:00,
2013-10-31 05:10:00,45.2,44.7,29.55,WNW,300,0.0,3.0,98,0.00,,OVC029,0.00,VWS V14.01,2013-10-31 10:10:00,
2013-10-31 05:15:00,45.2,44.7,29.55,NW,326,0.0,3.0,98,0.00,,OVC029,0.00,VWS V14.01,2013-10-31 10:15:00,
2013-10-31 05:20:00,45.1,44.6,29.55,NNW,336,0.0,3.0,98,0.00,,OVC031,0.00,VWS V14.01,2013-10-31 10:20:00,
2013-10-31 05:25:00,45.1,44.6,29.55,NW,326,0.0,3.0,98,0.00,,OVC031,0.00,VWS V14.01,2013-10-31 10:25:00,
2013-10-31 05:30:00,45.1,44.6,29.56,WNW,302,1.0,1.0,98,0.00,,OVC031,0.00,VWS V14.01,2013-10-31 10:30:00,
2013-10-31 05:35:00,45.1,44.6,29.55,NW,308,1.0,5.0,98,0.00,,OVC031,0.00,VWS V14.01,2013-10-31 10:35:00,
2013-10-31 05:40:00,45.1,44.6,29.56,NE,40,2.0,5.0,98,0.00,,OVC031,0.00,VWS V14.01,2013-10-31 10:40:00,
2013-10-31 05:45:00,45.1,44.6,29.56,NW,314,1.0,5.0,98,0.00,,OVC031,0.00,VWS V14.01,2013-10-31 10:45:00,
2013-10-31 05:50:00,45.0,44.5,29.55,NW,316,0.0,5.0,98,0.00,,OVC031,0.00,VWS V14.01,2013-10-31 10:50:00,
2013-10-31 05:55:00,44.9,44.4,29.55,NNW,339,2.0,7.0,98,0.00,,OVC031,0.00,VWS V14.01,2013-10-31 10:55:00,
2013-10-31 06:00:00,44.6,43.8,29.55,WNW,283,2.0,7.0,97,0.00,,OVC013,0.00,VWS V14.01,2013-10-31 11:00:00,
2013-10-31 06:05:00,44.2,43.4,29.55,WNW,301,6.0,8.0,97,0.00,,OVC013,0.00,VWS V14.01,2013-10-31 11:05:00,
2013-10-31 06:10:00,43.9,43.1,29.55,WNW,290,3.0,8.0,97,0.00,,OVC013,0.00,VWS V14.01,2013-10-31 11:10:00,
2013-10-31 06:15:00,43.7,42.9,29.55,NW,314,1.0,8.0,97,0.00,,OVC013,0.00,VWS V14.01,2013-10-31 11:15:00,
2013-10-31 06:20:00,43.6,42.8,29.55,WNW,298,4.0,8.0,97,0.00,,OVC013,0.00,VWS V14.01,2013-10-31 11:20:00,
2013-10-31 06:25:00,43.3,42.5,29.54,WNW,294,3.0,9.0,97,0.00,,OVC013,0.00,VWS V14.01,2013-10-31 11:25:00,
2013-10-31 06:30:00,43.1,42.3,29.54,SSW,211,0.0,9.0,97,0.00,,,0.00,VWS V14.01,2013-10-31 11:30:00,
2013-10-31 06:35:00,42.9,42.1,29.54,NW,304,3.0,5.0,97,0.00,,,0.00,VWS V14.01,2013-10-31 11:35:00,
2013-10-31 06:40:00,42.8,42.0,29.54,WNW,283,1.0,6.0,97,0.00,,,0.00,VWS V14.01,2013-10-31 11:40:00,
2013-10-31 06:45:00,42.8,42.3,29.54,WNW,284,1.0,7.0,98,0.00,,,0.00,VWS V14.01,2013-10-31 11:45:00,
2013-10-31 06:50:00,42.8,42.3,29.54,WNW,303,0.0,7.0,98,0.00,,,0.00,VWS V14.01,2013-10-31 11:50:00,
2013-10-31 06:55:00,42.7,42.2,29.54,West,278,1.0,7.0,98,0.00,,,0.00,VWS V14.01,2013-10-31 11:55:00,
2013-10-31 07:00:00,42.7,42.2,29.54,WNW,290,2.0,7.0,98,0.00,,,0.00,VWS V14.01,2013-10-31 12:00:00,
2013-10-31 07:05:00,42.6,42.1,29.54,WNW,287,2.0,5.0,98,0.00,,,0.00,VWS V14.01,2013-10-31 12:05:00,
2013-10-31 07:10:00,42.5,42.0,29.54,NW,313,1.0,5.0,98,0.00,,,0.00,VWS V14.01,2013-10-31 12:10:00,
2013-10-31 07:15:00,42.4,41.9,29.53,NW,326,2.0,5.0,98,0.00,,,0.00,VWS V14.01,2013-10-31 12:15:00,
2013-10-31 07:20:00,42.3,41.8,29.54,West,280,1.0,6.0,98,0.00,,,0.00,VWS V14.01,2013-10-31 12:20:00,
2013-10-31 07:25:00,42.3,41.8,29.53,NW,306,5.0,6.0,98,0.00,,,0.00,VWS V14.01,2013-10-31 12:25:00,
2013-10-31 07:30:00,42.3,41.8,29.54,WNW,284,1.0,7.0,98,0.00,,,0.00,VWS V14.01,2013-10-31 12:30:00,
2013-10-31 07:35:00,42.2,41.7,29.54,WNW,300,1.0,6.0,98,0.00,,,0.00,VWS V14.01,2013-10-31 12:35:00,
2013-10-31 07:40:00,42.1,41.6,29.54,NW,317,2.0,6.0,98,0.00,,,0.00,VWS V14.01,2013-10-31 12:40:00,
2013-10-31 07:45:00,41.9,41.4,29.55,West,278,3.0,7.0,98,0.00,,,0.00,VWS V14.01,2013-10-31 12:45:00,
2013-10-31 07:50:00,41.7,41.2,29.55,NW,305,3.0,7.0,98,0.00,,,0.00,VWS V14.01,2013-10-31 12:50:00,
2013-10-31 07:55:00,41.6,41.1,29.55,WNW,298,3.0,8.0,98,0.00,,,0.00,VWS V14.01,2013-10-31 12:55:00,
2013-10-31 08:00:00,41.5,41.0,29.55,WNW,291,2.0,8.0,98,0.00,,,0.00,VWS V14.01,2013-10-31 13:00:00,
2013-10-31 08:05:00,41.4,40.9,29.54,WNW,291,5.0,7.0,98,0.00,,,0.00,VWS V14.01,2013-10-31 13:05:00,
2013-10-31 08:10:00,41.4,40.9,29.54,NNW,332,0.0,7.0,98,0.00,,,0.00,VWS V14.01,2013-10-31 13:10:00,
2013-10-31 08:15:00,41.3,40.8,29.55,WNW,300,3.0,7.0,98,0.00,,,0.00,VWS V14.01,2013-10-31 13:15:00,
2013-10-31 08:20:00,41.0,40.5,29.55,WNW,302,2.0,9.0,98,0.00,,,0.00,VWS V14.01,2013-10-31 13:20:00,
2013-10-31 08:25:00,41.0,40.5,29.54,NW,313,1.0,9.0,98,0.00,,,0.00,VWS V14.01,2013-10-31 13:25:00,
2013-10-31 08:30:00,40.9,40.4,29.54,WNW,285,3.0,9.0,98,0.00,,,0.00,VWS V14.01,2013-10-31 13:30:00,
2013-10-31 08:35:00,40.6,39.8,29.53,NW,312,2.0,6.0,97,0.00,,,0.00,VWS V14.01,2013-10-31 13:35:00,
2013-10-31 08:40:00,40.5,40.0,29.53,NW,315,1.0,6.0,98,0.00,,,0.00,VWS V14.01,2013-10-31 13:40:00,
2013-10-31 08:45:00,40.5,40.0,29.53,NNW,327,2.0,6.0,98,0.00,,,0.00,VWS V14.01,2013-10-31 13:45:00,
2013-10-31 08:50:00,40.4,39.9,29.54,NNW,327,2.0,6.0,98,0.00,,,0.00,VWS V14.01,2013-10-31 13:50:00,
2013-10-31 08:55:00,40.3,39.8,29.53,WNW,293,2.0,6.0,98,0.00,,,0.00,VWS V14.01,2013-10-31 13:55:00,
2013-10-31 09:00:00,40.2,39.7,29.53,NW,316,1.0,7.0,98,0.00,,,0.00,VWS V14.01,2013-10-31 14:00:00,
2013-10-31 09:05:00,40.1,39.6,29.53,WNW,301,2.0,4.0,98,0.00,,,0.00,VWS V14.01,2013-10-31 14:05:00,
2013-10-31 09:10:00,40.0,39.2,29.54,WNW,291,1.0,6.0,97,0.00,,,0.00,VWS V14.01,2013-10-31 14:10:00,
2013-10-31 09:15:00,39.9,39.1,29.54,West,271,3.0,7.0,97,0.00,,,0.00,VWS V14.01,2013-10-31 14:15:00,
2013-10-31 09:20:00,39.7,38.9,29.53,NW,305,2.0,11.0,97,0.00,,,0.00,VWS V14.01,2013-10-31 14:20:00,
2013-10-31 09:25:00,39.4,38.6,29.54,NW,313,3.0,11.0,97,0.00,,,0.00,VWS V14.01,2013-10-31 14:25:00,
2013-10-31 09:30:00,39.0,38.0,29.54,WNW,297,5.0,11.0,96,0.00,,,0.00,VWS V14.01,2013-10-31 14:30:00,
2013-10-31 09:35:00,38.9,38.1,29.54,WNW,294,0.0,5.0,97,0.00,,,0.00,VWS V14.01,2013-10-31 14:35:00,
2013-10-31 09:40:00,38.9,38.1,29.54,WNW,296,3.0,8.0,97,0.00,,,0.00,VWS V14.01,2013-10-31 14:40:00,
2013-10-31 09:45:00,38.8,37.8,29.54,WNW,286,3.0,8.0,96,0.00,,,0.00,VWS V14.01,2013-10-31 14:45:00,
2013-10-31 09:50:00,38.8,37.8,29.54,WNW,295,2.0,8.0,96,0.00,,,0.00,VWS V14.01,2013-10-31 14:50:00,
2013-10-31 09:55:00,38.8,37.8,29.54,NW,309,1.0,8.0,96,0.00,,,0.00,VWS V14.01,2013-10-31 14:55:00,
2013-10-31 10:00:00,38.8,37.5,29.53,NW,304,2.0,8.0,95,0.00,,OVC004,0.00,VWS V14.01,2013-10-31 15:00:00,
2013-10-31 10:05:00,39.0,38.0,29.53,WNW,292,5.0,5.0,96,0.00,,OVC004,0.00,VWS V14.01,2013-10-31 15:05:00,
2013-10-31 10:10:00,39.0,37.7,29.53,NW,304,3.0,7.0,95,0.00,,OVC006,0.00,VWS V14.01,2013-10-31 15:10:00,
2013-10-31 10:15:00,39.1,37.8,29.53,WNW,288,3.0,9.0,95,0.00,,OVC006,0.00,VWS V14.01,2013-10-31 15:15:00,
2013-10-31 10:20:00,39.2,37.9,29.53,WNW,290,5.0,9.0,95,0.00,,OVC006,0.00,VWS V14.01,2013-10-31 15:20:00,
2013-10-31 10:25:00,39.3,38.0,29.53,WNW,301,5.0,9.0,95,0.00,,OVC006,0.00,VWS V14.01,2013-10-31 15:25:00,
2013-10-31 10:30:00,39.5,37.9,29.53,NNW,332,2.0,9.0,94,0.00,,OVC006,0.00,VWS V14.01,2013-10-31 15:30:00,
2013-10-31 10:35:00,39.5,37.9,29.53,West,270,3.0,9.0,94,0.00,,OVC006,0.00,VWS V14.01,2013-10-31 15:35:00,
2013-10-31 10:40:00,39.5,37.9,29.52,WSW,245,7.0,9.0,94,0.00,,OVC006,0.00,VWS V14.01,2013-10-31 15:40:00,
2013-10-31 10:45:00,39.5,37.7,29.52,NW,316,3.0,9.0,93,0.00,,OVC006,0.00,VWS V14.01,2013-10-31 15:45:00,
2013-10-31 10:50:00,39.5,37.7,29.51,North,6,3.0,9.0,93,0.00,,OVC006,0.00,VWS V14.01,2013-10-31 15:50:00,
2013-10-31 10:55:00,39.6,37.8,29.51,WNW,294,2.0,9.0,93,0.00,,OVC006,0.00,VWS V14.01,2013-10-31 15:55:00,
2013-10-31 11:00:00,39.7,37.8,29.51,WNW,300,4.0,10.0,93,0.00,,OVC006,0.00,VWS V14.01,2013-10-31 16:00:00,
2013-10-31 11:05:00,39.6,37.5,29.51,WNW,298,3.0,7.0,92,0.00,,OVC006,0.00,VWS V14.01,2013-10-31 16:05:00,
2013-10-31 11:10:00,39.7,37.6,29.51,West,267,3.0,7.0,92,0.00,,OVC006,0.00,VWS V14.01,2013-10-31 16:10:00,
2013-10-31 11:15:00,39.8,37.7,29.52,NW,311,2.0,9.0,92,0.00,,OVC006,0.00,VWS V14.01,2013-10-31 16:15:00,
2013-10-31 11:20:00,39.9,37.8,29.51,WNW,287,4.0,13.0,92,0.00,,OVC006,0.00,VWS V14.01,2013-10-31 16:20:00,
2013-10-31 11:25:00,39.9,37.5,29.51,NW,304,4.0,13.0,91,0.00,,OVC006,0.00,VWS V14.01,2013-10-31 16:25:00,
2013-10-31 11:30:00,40.1,38.0,29.51,WNW,293,5.0,13.0,92,0.00,,OVC006,0.00,VWS V14.01,2013-10-31 16:30:00,
2013-10-31 11:35:00,40.1,37.7,29.50,NW,305,2.0,8.0,91,0.00,,OVC006,0.00,VWS V14.01,2013-10-31 16:35:00,
2013-10-31 11:40:00,40.1,37.7,29.50,NW,314,2.0,8.0,91,0.00,,OVC006,0.00,VWS V14.01,2013-10-31 16:40:00,
2013-10-31 11:45:00,40.3,37.9,29.50,WNW,297,1.0,8.0,91,0.00,,OVC006,0.00,VWS V14.01,2013-10-31 16:45:00,
2013-10-31 11:50:00,40.6,38.2,29.50,WNW,288,4.0,8.0,91,0.00,,OVC006,0.00,VWS V14.01,2013-10-31 16:50:00,
2013-10-31 11:55:00,40.5,37.8,29.50,NNW,342,2.0,8.0,90,0.00,,OVC006,0.00,VWS V14.01,2013-10-31 16:55:00,
2013-10-31 12:00:00,40.8,38.4,29.49,West,271,7.0,8.0,91,0.00,,BKN008,0.00,VWS V14.01,2013-10-31 17:00:00,
2013-10-31 12:05:00,41.1,38.4,29.50,WNW,291,4.0,7.0,90,0.00,,BKN010,0.00,VWS V14.01,2013-10-31 17:05:00,
2013-10-31 12:10:00,41.1,38.4,29.50,WNW,283,3.0,7.0,90,0.00,,BKN010,0.00,VWS V14.01,2013-10-31 17:10:00,
2013-10-31 12:15:00,41.3,38.6,29.49,North,356,4.0,8.0,90,0.00,,BKN010,0.00,VWS V14.01,2013-10-31 17:15:00,
2013-10-31 12:20:00,41.4,38.4,29.49,WNW,295,6.0,13.0,89,0.00,,BKN010,0.00,VWS V14.01,2013-10-31 17:20:00,
2013-10-31 12:25:00,41.5,38.5,29.49,NW,316,2.0,13.0,89,0.00,,BKN010,0.00,VWS V14.01,2013-10-31 17:25:00,
2013-10-31 12:30:00,41.6,38.6,29.48,WNW,282,5.0,13.0,89,0.00,,BKN010,0.00,VWS V14.01,2013-10-31 17:30:00,
2013-10-31 12:35:00,41.9,39.2,29.48,WNW,284,4.0,8.0,90,0.00,,BKN010,0.00,VWS V14.01,2013-10-31 17:35:00,
2013-10-31 12:40:00,41.8,38.8,29.48,WNW,286,2.0,8.0,89,0.00,,BKN010,0.00,VWS V14.01,2013-10-31 17:40:00,
2013-10-31 12:45:00,41.8,38.8,29.48,West,278,4.0,8.0,89,0.00,,BKN010,0.00,VWS V14.01,2013-10-31 17:45:00,
2013-10-31 12:50:00,41.8,39.1,29.47,WNW,298,2.0,10.0,90,0.00,,BKN010,0.00,VWS V14.01,2013-10-31 17:50:00,
2013-10-31 12:55:00,41.7,39.0,29.47,WNW,298,1.0,10.0,90,0.00,,BKN010,0.00,VWS V14.01,2013-10-31 17:55:00,
2013-10-31 13:00:00,41.8,39.1,29.47,NW,305,3.0,10.0,90,0.00,,OVC010,0.00,VWS V14.01,2013-10-31 18:00:00,
2013-10-31 13:05:00,41.7,38.7,29.47,WNW,298,1.0,6.0,89,0.00,,OVC010,0.00,VWS V14.01,2013-10-31 18:05:00,
2013-10-31 13:10:00,41.7,38.7,29.47,West,280,7.0,8.0,89,0.00,,OVC010,0.00,VWS V14.01,2013-10-31 18:10:00,
2013-10-31 13:15:00,41.8,38.8,29.47,WNW,302,1.0,10.0,89,0.00,,OVC010,0.00,VWS V14.01,2013-10-31 18:15:00,
2013-10-31 13:20:00,41.8,38.8,29.46,WNW,285,1.0,10.0,89,0.00,,OVC010,0.00,VWS V14.01,2013-10-31 18:20:00,
2013-10-31 13:25:00,41.7,39.0,29.45,West,280,1.0,10.0,90,0.00,,OVC010,0.00,VWS V14.01,2013-10-31 18:25:00,
2013-10-31 13:30:00,41.6,38.9,29.45,WNW,286,5.0,11.0,90,0.00,,OVC010,0.00,VWS V14.01,2013-10-31 18:30:00,
2013-10-31 13:35:00,41.6,38.9,29.45,WNW,284,8.0,11.0,90,0.00,,OVC010,0.00,VWS V14.01,2013-10-31 18:35:00,
2013-10-31 13:40:00,41.4,38.7,29.45,West,271,6.0,11.0,90,0.00,,OVC010,0.00,VWS V14.01,2013-10-31 18:40:00,
2013-10-31 13:45:00,41.4,38.4,29.45,West,267,3.0,11.0,89,0.00,,OVC010,0.00,VWS V14.01,2013-10-31 18:45:00,
2013-10-31 13:50:00,41.4,38.4,29.45,West,280,3.0,11.0,89,0.00,,OVC010,0.00,VWS V14.01,2013-10-31 18:50:00,
2013-10-31 13:55:00,41.4,38.4,29.44,West,273,6.0,11.0,89,0.00,,OVC010,0.00,VWS V14.01,2013-10-31 18:55:00,
2013-10-31 14:00:00,41.3,38.6,29.44,West,269,6.0,11.0,90,0.00,,OVC010,0.00,VWS V14.01,2013-10-31 19:00:00,
2013-10-31 14:05:00,41.2,38.5,29.43,West,281,5.0,12.0,90,0.00,,OVC010,0.00,VWS V14.01,2013-10-31 19:05:00,
2013-10-31 14:10:00,41.0,38.0,29.43,WSW,240,6.0,12.0,89,0.00,,OVC010,0.00,VWS V14.01,2013-10-31 19:10:00,
2013-10-31 14:15:00,41.0,38.3,29.43,WNW,291,5.0,12.0,90,0.00,,OVC010,0.00,VWS V14.01,2013-10-31 19:15:00,
2013-10-31 14:20:00,40.9,38.2,29.43,West,262,4.0,12.0,90,0.00,,OVC010,0.00,VWS V14.01,2013-10-31 19:20:00,
2013-10-31 14:25:00,40.9,38.5,29.42,West,263,3.0,12.0,91,0.00,,OVC010,0.00,VWS V14.01,2013-10-31 19:25:00,
2013-10-31 14:30:00,40.7,38.3,29.42,West,266,5.0,12.0,91,0.00,,OVC010,0.00,VWS V14.01,2013-10-31 19:30:00,
2013-10-31 14:35:00,40.7,38.3,29.42,WNW,290,3.0,12.0,91,0.00,,OVC010,0.00,VWS V14.01,2013-10-31 19:35:00,
2013-10-31 14:40:00,40.5,37.8,29.42,West,270,6.0,17.0,90,0.00,,OVC010,0.00,VWS V14.01,2013-10-31 19:40:00,
2013-10-31 14:45:00,40.5,38.1,29.42,WNW,295,3.0,17.0,91,0.00,,OVC010,0.00,VWS V14.01,2013-10-31 19:45:00,
2013-10-31 14:50:00,40.4,38.0,29.41,NW,305,3.0,17.0,91,0.00,,OVC008,0.00,VWS V14.01,2013-10-31 19:50:00,
2013-10-31 14:53:00,40.2,37.8,29.42,NW,325,3.0,17.0,91,0.00,,OVC008,0.00,VWS V14.01,2013-10-31 19:53:00,
2013-10-31 14:58:00,40.0,37.6,29.41,WNW,292,8.0,17.0,91,0.00,,OVC008,0.00,VWS V14.01,2013-10-31 19:58:00,
2013-10-31 15:03:00,39.9,37.5,29.41,WNW,287,3.0,11.0,91,0.00,,OVC008,0.00,VWS V14.01,2013-10-31 20:03:00,
2013-10-31 15:08:00,39.7,37.3,29.41,WNW,294,2.0,12.0,91,0.00,,OVC008,0.00,VWS V14.01,2013-10-31 20:08:00,
2013-10-31 15:13:00,39.6,37.2,29.41,West,270,4.0,12.0,91,0.00,,OVC008,0.00,VWS V14.01,2013-10-31 20:13:00,
2013-10-31 15:18:00,39.7,37.3,29.40,WNW,297,2.0,12.0,91,0.00,,OVC008,0.00,VWS V14.01,2013-10-31 20:18:00,
2013-10-31 15:23:00,39.7,37.3,29.41,WNW,285,6.0,12.0,91,0.00,,OVC008,0.00,VWS V14.01,2013-10-31 20:23:00,
2013-10-31 15:28:00,39.7,37.6,29.40,NW,305,5.0,12.0,92,0.00,,OVC008,0.00,VWS V14.01,2013-10-31 20:28:00,
2013-10-31 15:33:00,39.7,37.6,29.40,NW,304,1.0,7.0,92,0.00,,OVC008,0.00,VWS V14.01,2013-10-31 20:33:00,
2013-10-31 15:38:00,39.6,37.2,29.41,WNW,285,2.0,8.0,91,0.00,,OVC008,0.00,VWS V14.01,2013-10-31 20:38:00,
2013-10-31 15:43:00,39.6,37.2,29.41,WNW,301,3.0,8.0,91,0.00,,OVC008,0.00,VWS V14.01,2013-10-31 20:43:00,
2013-10-31 15:48:00,39.5,37.1,29.41,NNW,328,1.0,10.0,91,0.00,,OVC008,0.00,VWS V14.01,2013-10-31 20:48:00,
2013-10-31 15:53:00,39.4,37.0,29.41,West,276,2.0,10.0,91,0.00,,OVC008,0.00,VWS V14.01,2013-10-31 20:53:00,
2013-10-31 15:58:00,39.4,37.0,29.40,WNW,297,2.0,10.0,91,0.00,,OVC008,0.00,VWS V14.01,2013-10-31 20:58:00,
2013-10-31 16:03:00,39.4,37.3,29.41,West,276,2.0,6.0,92,0.00,,OVC008,0.00,VWS V14.01,2013-10-31 21:03:00,
2013-10-31 16:08:00,39.2,36.8,29.41,NW,305,7.0,12.0,91,0.00,,OVC008,0.00,VWS V14.01,2013-10-31 21:08:00,
2013-10-31 16:13:00,39.1,37.0,29.41,NW,318,4.0,14.0,92,0.00,,OVC008,0.00,VWS V14.01,2013-10-31 21:13:00,
2013-10-31 16:18:00,39.0,36.9,29.41,NW,316,3.0,14.0,92,0.00,,OVC008,0.00,VWS V14.01,2013-10-31 21:18:00,
2013-10-31 16:23:00,39.0,36.9,29.41,WNW,300,2.0,14.0,92,0.00,,OVC008,0.00,VWS V14.01,2013-10-31 21:23:00,
2013-10-31 16:28:00,39.0,37.2,29.41,NW,321,2.0,14.0,93,0.00,,OVC008,0.00,VWS V14.01,2013-10-31 21:28:00,
2013-10-31 16:33:00,38.9,36.8,29.42,North,356,2.0,4.0,92,0.00,,OVC008,0.00,VWS V14.01,2013-10-31 21:33:00,
2013-10-31 16:38:00,38.9,36.8,29.42,NW,316,2.0,5.0,92,0.00,,OVC008,0.00,VWS V14.01,2013-10-31 21:38:00,
2013-10-31 16:43:00,38.8,36.7,29.42,NW,308,3.0,6.0,92,0.00,,OVC008,0.00,VWS V14.01,2013-10-31 21:43:00,
2013-10-31 16:48:00,38.8,37.0,29.42,North,6,0.0,6.0,93,0.00,,OVC008,0.00,VWS V14.01,2013-10-31 21:48:00,
2013-10-31 16:53:00,38.8,37.0,29.42,NW,315,4.0,6.0,93,0.00,,OVC008,0.00,VWS V14.01,2013-10-31 21:53:00,
2013-10-31 16:58:00,38.8,37.0,29.42,WNW,297,4.0,6.0,93,0.00,,OVC008,0.00,VWS V14.01,2013-10-31 21:58:00,
2013-10-31 17:03:00,38.7,36.8,29.42,NW,308,0.0,6.0,93,0.00,,OVC008,0.00,VWS V14.01,2013-10-31 22:03:00,
2013-10-31 17:08:00,38.7,36.3,29.42,NW,318,4.0,8.0,91,0.00,,OVC008,0.00,VWS V14.01,2013-10-31 22:08:00,
2013-10-31 17:13:00,38.6,36.5,29.42,WNW,297,2.0,8.0,92,0.00,,OVC008,0.00,VWS V14.01,2013-10-31 22:13:00,
2013-10-31 17:18:00,38.6,36.5,29.43,WNW,285,1.0,8.0,92,0.00,,OVC008,0.00,VWS V14.01,2013-10-31 22:18:00,
2013-10-31 17:23:00,38.6,36.5,29.43,NW,312,0.0,8.0,92,0.00,,OVC008,0.00,VWS V14.01,2013-10-31 22:23:00,
2013-10-31 17:28:00,38.6,36.5,29.43,WNW,297,2.0,8.0,92,0.00,,OVC008,0.00,VWS V14.01,2013-10-31 22:28:00,
2013-10-31 17:33:00,38.7,36.6,29.42,WNW,296,1.0,5.0,92,0.00,,OVC008,0.00,VWS V14.01,2013-10-31 22:33:00,
2013-10-31 17:38:00,38.9,36.8,29.42,NW,317,2.0,8.0,92,0.00,,OVC008,0.00,VWS V14.01,2013-10-31 22:38:00,
2013-10-31 17:43:00,39.0,36.6,29.42,WNW,293,4.0,8.0,91,0.00,,OVC008,0.00,VWS V14.01,2013-10-31 22:43:00,
2013-10-31 17:48:00,39.2,36.5,29.42,NW,321,2.0,8.0,90,0.00,,OVC008,0.00,VWS V14.01,2013-10-31 22:48:00,
2013-10-31 17:53:00,39.2,36.5,29.42,WNW,301,4.0,8.0,90,0.00,,OVC008,0.00,VWS V14.01,2013-10-31 22:53:00,
2013-10-31 17:58:00,39.2,36.2,29.43,North,11,2.0,8.0,89,0.00,,OVC008,0.00,VWS V14.01,2013-10-31 22:58:00,
2013-10-31 18:03:00,39.2,36.5,29.43,ESE,111,0.0,3.0,90,0.00,,OVC008,0.00,VWS V14.01,2013-10-31 23:03:00,
2013-10-31 18:08:00,39.2,36.5,29.43,North,6,2.0,5.0,90,0.00,,OVC008,0.00,VWS V14.01,2013-10-31 23:08:00,
2013-10-31 18:13:00,39.2,36.5,29.43,WNW,301,4.0,7.0,90,0.00,,OVC008,0.00,VWS V14.01,2013-10-31 23:13:00,
2013-10-31 18:18:00,39.3,36.3,29.43,NW,316,3.0,8.0,89,0.00,,OVC008,0.00,VWS V14.01,2013-10-31 23:18:00,
2013-10-31 18:23:00,39.4,36.7,29.43,NNE,15,2.0,8.0,90,0.00,,OVC008,0.00,VWS V14.01,2013-10-31 23:23:00,
2013-10-31 18:28:00,39.3,36.6,29.43,North,356,0.0,8.0,90,0.00,,OVC011,0.00,VWS V14.01,2013-10-31 23:28:00,
2013-10-31 18:33:00,39.3,36.3,29.43,WNW,296,2.0,4.0,89,0.00,,OVC011,0.00,VWS V14.01,2013-10-31 23:33:00,
2013-10-31 18:38:00,39.2,36.5,29.43,NW,314,2.0,4.0,90,0.00,,OVC011,0.00,VWS V14.01,2013-10-31 23:38:00,
2013-10-31 18:43:00,39.2,36.5,29.43,NW,308,1.0,5.0,90,0.00,,OVC011,0.00,VWS V14.01,2013-10-31 23:43:00,
2013-10-31 18:48:00,39.2,36.5,29.43,WNW,291,2.0,6.0,90,0.00,,OVC011,0.00,VWS V14.01,2013-10-31 23:48:00,
2013-10-31 18:53:00,39.2,36.5,29.43,NNW,337,1.0,6.0,90,0.00,,OVC011,0.00,VWS V14.01,2013-10-31 23:53:00,
2013-10-31 18:58:00,39.2,36.5,29.43,NNW,346,1.0,6.0,90,0.00,,OVC011,0.00,VWS V14.01,2013-10-31 23:58:00,
2013-10-31 19:03:00,39.3,36.6,29.43,WNW,301,3.0,7.0,90,0.00,,OVC013,0.00,VWS V14.01,2013-11-01 00:03:00,
2013-10-31 19:08:00,39.3,36.6,29.43,WNW,295,3.0,7.0,90,0.00,,OVC013,0.00,VWS V14.01,2013-11-01 00:08:00,
2013-10-31 19:13:00,39.4,36.7,29.43,WNW,293,1.0,7.0,90,0.00,,OVC013,0.00,VWS V14.01,2013-11-01 00:13:00,
2013-10-31 19:18:00,39.4,36.7,29.43,WNW,301,1.0,7.0,90,0.00,,OVC013,0.00,VWS V14.01,2013-11-01 00:18:00,
2013-10-31 19:23:00,39.4,36.7,29.43,NW,317,1.0,7.0,90,0.00,,OVC013,0.00,VWS V14.01,2013-11-01 00:23:00,
2013-10-31 19:28:00,39.4,36.7,29.44,WNW,291,1.0,7.0,90,0.00,,OVC013,0.00,VWS V14.01,2013-11-01 00:28:00,
2013-10-31 19:33:00,39.5,36.8,29.44,NNW,347,0.0,2.0,90,0.00,,OVC013,0.00,VWS V14.01,2013-11-01 00:33:00,
2013-10-31 19:38:00,39.5,36.8,29.44,NW,316,3.0,3.0,90,0.00,,OVC015,0.00,VWS V14.01,2013-11-01 00:38:00,
2013-10-31 19:43:00,39.4,36.7,29.44,NW,317,4.0,7.0,90,0.00,,OVC015,0.00,VWS V14.01,2013-11-01 00:43:00,
2013-10-31 19:48:00,39.4,36.7,29.44,North,351,1.0,7.0,90,0.00,,OVC015,0.00,VWS V14.01,2013-11-01 00:48:00,
2013-10-31 19:53:00,39.5,37.1,29.44,WNW,295,2.0,7.0,91,0.00,,OVC015,0.00,VWS V14.01,2013-11-01 00:53:00,
2013-10-31 19:58:00,39.5,37.1,29.44,WNW,299,3.0,7.0,91,0.00,,OVC015,0.00,VWS V14.01,2013-11-01 00:58:00,
2013-10-31 20:03:00,39.5,37.1,29.44,NW,311,1.0,5.0,91,0.00,,OVC018,0.00,VWS V14.01,2013-11-01 01:03:00,
2013-10-31 20:08:00,39.5,37.1,29.44,WNW,295,1.0,5.0,91,0.00,,OVC018,0.00,VWS V14.01,2013-11-01 01:08:00,
2013-10-31 20:13:00,39.5,37.1,29.44,WNW,303,3.0,6.0,91,0.00,,OVC018,0.00,VWS V14.01,2013-11-01 01:13:00,
2013-10-31 20:18:00,39.5,37.4,29.44,NW,305,2.0,6.0,92,0.00,,OVC018,0.00,VWS V14.01,2013-11-01 01:18:00,
2013-10-31 20:23:00,39.4,37.3,29.44,WNW,302,4.0,9.0,92,0.00,,OVC021,0.00,VWS V14.01,2013-11-01 01:23:00,
2013-10-31 20:28:00,39.4,37.3,29.44,WNW,285,1.0,9.0,92,0.00,,OVC021,0.00,VWS V14.01,2013-11-01 01:28:00,
2013-10-31 20:33:00,39.3,37.5,29.44,WNW,293,3.0,4.0,93,0.00,,OVC021,0.00,VWS V14.01,2013-11-01 01:33:00,
2013-10-31 20:38:00,39.2,37.3,29.44,WNW,301,1.0,5.0,93,0.00,,OVC021,0.00,VWS V14.01,2013-11-01 01:38:00,
2013-10-31 20:43:00,39.2,37.6,29.44,WNW,296,2.0,5.0,94,0.00,,OVC021,0.00,VWS V14.01,2013-11-01 01:43:00,
2013-10-31 20:48:00,39.2,37.6,29.44,WNW,288,1.0,6.0,94,0.00,,OVC030,0.00,VWS V14.01,2013-11-01 01:48:00,
2013-10-31 20:53:00,39.2,37.6,29.43,WNW,297,2.0,8.0,94,0.00,,OVC030,0.00,VWS V14.01,2013-11-01 01:53:00,
2013-10-31 20:58:00,39.3,37.7,29.43,NW,308,3.0,10.0,94,0.00,,OVC030,0.00,VWS V14.01,2013-11-01 01:58:00,
2013-10-31 21:03:00,39.4,37.5,29.43,WNW,284,1.0,6.0,93,0.00,,OVC030,0.00,VWS V14.01,2013-11-01 02:03:00,
2013-10-31 21:08:00,39.5,37.7,29.43,West,272,3.0,6.0,93,0.00,,OVC030,0.00,VWS V14.01,2013-11-01 02:08:00,
2013-10-31 21:13:00,39.5,37.7,29.43,WNW,299,2.0,6.0,93,0.00,,OVC030,0.00,VWS V14.01,2013-11-01 02:13:00,
2013-10-31 21:18:00,39.6,37.8,29.43,WNW,301,1.0,8.0,93,0.00,,OVC030,0.00,VWS V14.01,2013-11-01 02:18:00,
2013-10-31 21:23:00,39.7,37.8,29.43,WNW,295,1.0,8.0,93,0.00,,OVC028,0.00,VWS V14.01,2013-11-01 02:23:00,
2013-10-31 21:28:00,39.9,37.8,29.43,WSW,242,9.0,9.0,92,0.00,,OVC028,0.00,VWS V14.01,2013-11-01 02:28:00,
2013-10-31 21:33:00,40.0,37.9,29.43,NW,314,2.0,6.0,92,0.00,,OVC028,0.00,VWS V14.01,2013-11-01 02:33:00,
2013-10-31 21:38:00,40.1,38.0,29.43,West,278,7.0,7.0,92,0.00,,OVC028,0.00,VWS V14.01,2013-11-01 02:38:00,
2013-10-31 21:43:00,40.2,37.8,29.43,WNW,294,2.0,7.0,91,0.00,,OVC030,0.00,VWS V14.01,2013-11-01 02:43:00,
2013-10-31 21:48:00,40.2,37.8,29.43,WNW,291,1.0,7.0,91,0.00,,OVC030,0.00,VWS V14.01,2013-11-01 02:48:00,
2013-10-31 21:53:00,40.3,37.9,29.43,West,280,7.0,8.0,91,0.00,,OVC030,0.00,VWS V14.01,2013-11-01 02:53:00,
2013-10-31 21:58:00,40.4,38.0,29.43,West,278,5.0,8.0,91,0.00,,OVC030,0.00,VWS V14.01,2013-11-01 02:58:00,
2013-10-31 22:03:00,40.4,38.0,29.43,NW,305,1.0,5.0,91,0.00,,OVC030,0.00,VWS V14.01,2013-11-01 03:03:00,
2013-10-31 22:08:00,40.4,38.3,29.43,WNW,296,2.0,6.0,92,0.00,,OVC030,0.00,VWS V14.01,2013-11-01 03:08:00,
2013-10-31 22:13:00,40.4,38.3,29.43,WNW,298,1.0,8.0,92,0.00,,OVC030,0.00,VWS V14.01,2013-11-01 03:13:00,
2013-10-31 22:18:00,40.4,38.3,29.43,West,276,1.0,8.0,92,0.00,,OVC030,0.00,VWS V14.01,2013-11-01 03:18:00,
2013-10-31 22:23:00,40.4,38.3,29.43,West,280,4.0,8.0,92,0.00,,OVC030,0.00,VWS V14.01,2013-11-01 03:23:00,
2013-10-31 22:28:00,40.4,38.3,29.44,WNW,301,4.0,8.0,92,0.00,,OVC030,0.00,VWS V14.01,2013-11-01 03:28:00,
2013-10-31 22:33:00,40.4,38.5,29.44,WNW,295,2.0,3.0,93,0.00,,OVC028,0.00,VWS V14.01,2013-11-01 03:33:00,
2013-10-31 22:38:00,40.3,38.4,29.43,WNW,288,1.0,6.0,93,0.00,,OVC028,0.00,VWS V14.01,2013-11-01 03:38:00,
2013-10-31 22:43:00,40.2,38.3,29.44,WNW,288,1.0,6.0,93,0.00,,OVC028,0.00,VWS V14.01,2013-11-01 03:43:00,
2013-10-31 22:48:00,40.1,38.5,29.44,WNW,302,1.0,7.0,94,0.00,,OVC033,0.00,VWS V14.01,2013-11-01 03:48:00,
2013-10-31 22:53:00,40.1,38.5,29.44,NW,312,1.0,8.0,94,0.00,,OVC033,0.00,VWS V14.01,2013-11-01 03:53:00,
2013-10-31 22:58:00,40.1,38.5,29.44,NW,314,1.0,8.0,94,0.00,,OVC033,0.00,VWS V14.01,2013-11-01 03:58:00,
2013-10-31 23:01:00,40.1,38.5,29.44,WNW,285,1.0,3.0,94,0.00,,OVC034,0.00,VWS V14.01,2013-11-01 04:01:00,
2013-10-31 23:06:00,40.1,38.5,29.44,WNW,300,2.0,6.0,94,0.00,,OVC034,0.00,VWS V14.01,2013-11-01 04:06:00,
2013-10-31 23:11:00,40.1,38.5,29.44,WNW,290,4.0,8.0,94,0.00,,OVC034,0.00,VWS V14.01,2013-11-01 04:11:00,
2013-10-31 23:16:00,40.2,38.6,29.44,WNW,293,2.0,8.0,94,0.00,,OVC034,0.00,VWS V14.01,2013-11-01 04:16:00,
2013-10-31 23:21:00,40.2,38.6,29.44,West,277,2.0,8.0,94,0.00,,OVC034,0.00,VWS V14.01,2013-11-01 04:21:00,
2013-10-31 23:26:00,40.2,38.6,29.44,WNW,302,6.0,8.0,94,0.00,,OVC034,0.00,VWS V14.01,2013-11-01 04:26:00,
2013-10-31 23:31:00,40.3,38.7,29.44,NW,318,2.0,3.0,94,0.00,,OVC034,0.00,VWS V14.01,2013-11-01 04:31:00,
2013-10-31 23:36:00,40.3,38.7,29.44,West,268,0.0,4.0,94,0.00,,OVC034,0.00,VWS V14.01,2013-11-01 04:36:00,
2013-10-31 23:41:00,40.4,38.8,29.44,NW,321,0.0,4.0,94,0.00,,OVC034,0.00,VWS V14.01,2013-11-01 04:41:00,
2013-10-31 23:46:00,40.3,38.7,29.44,NW,316,2.0,4.0,94,0.00,,OVC034,0.00,VWS V14.01,2013-11-01 04:46:00,
2013-10-31 23:51:00,40.4,38.8,29.44,NW,304,3.0,6.0,94,0.00,,OVC034,0.00,VWS V14.01,2013-11-01 04:51:00,
2013-10-31 23:56:00,40.4,38.8,29.44,NW,305,3.0,6.0,94,0.00,,OVC034,0.00,VWS V14.01,2013-11-01 04:56:00,